Pagina principale
METAR-TAF:

METAR-TAF

Aeroporti :

Meiringen, Svizzera

latitudine: 46-44-25N, longitudine: 8-06-36E, altezza: 577 m

Osservazione

Il bollettino è stato emesso 33 minuti fa, alle 16:20 UTC
Vento 12 kt da ovest/nord-ovest con raffiche fino a 22 kt, variando fra ovest e nord/nord-ovest
Temperature 19°C
Umidità 49%
Pressione 1009 hPa
Visibilità 10 km o più
Nuvoloso ad un'altezza di 9500 ft

METAR: LSMM 151620Z AUTO 30012G22KT 260V330 9999NDV BKN095 19/08 Q1009 RMK

Ora: 18:53 (16:53 UTC)


TAF: mancante

Osservazioni e previsioni meteorologiche di più di 4000 aeroporti (messaggi METAR e TAF).

Le stazioni disponibili sono rappresentate dai dischi gialli e rossi sulla carta.

Puntare il mouse per vedere il nome della stazione.

Clicca sopra per visualizzare le osservazioni e previsioni meteorologiche.

Per cambiare la mappa : fare clic sui pulsanti verdi con una croce nera per ingrandire, il pulsante verde con un trattino per diminuire, o sulla freccia verde per le mappe adiacenti.


METAR-TAF: